createdAt,value
2018-12-29T00:00:00.904Z,32.97
2018-12-29T00:02:29.728Z,30.57
2018-12-29T00:04:58.404Z,31.17
2018-12-29T00:07:27.081Z,32.40
2018-12-29T00:09:55.801Z,34.80
2018-12-29T00:12:24.560Z,35.77
2018-12-29T00:14:55.066Z,28.03
2018-12-29T00:17:23.796Z,28.23
2018-12-29T00:19:52.482Z,30.00
2018-12-29T00:22:21.166Z,37.10
2018-12-29T00:24:50.021Z,43.67
2018-12-29T00:27:18.703Z,37.23
2018-12-29T00:29:47.379Z,32.67
2018-12-29T00:32:16.305Z,28.63
2018-12-29T00:34:44.988Z,26.20
2018-12-29T00:37:13.684Z,26.00
2018-12-29T00:39:42.774Z,27.80
2018-12-29T00:42:11.438Z,27.23
2018-12-29T00:44:40.129Z,30.33
2018-12-29T00:47:08.944Z,31.40
2018-12-29T00:49:37.625Z,29.07
2018-12-29T00:52:06.294Z,22.17
2018-12-29T00:54:35.124Z,18.23
2018-12-29T00:57:03.843Z,14.97
2018-12-29T00:59:35.576Z,17.40
2018-12-29T01:02:04.441Z,14.80
2018-12-29T01:04:33.120Z,14.00
2018-12-29T01:07:01.807Z,14.97
2018-12-29T01:09:30.808Z,13.47
2018-12-29T01:11:59.485Z,13.43
2018-12-29T01:14:28.161Z,12.77
2018-12-29T01:16:56.937Z,13.10
2018-12-29T01:19:25.626Z,14.13
2018-12-29T01:21:54.310Z,12.00
2018-12-29T01:24:23.339Z,12.93
2018-12-29T01:26:52.026Z,13.00
2018-12-29T01:29:22.176Z,11.07
2018-12-29T01:31:51.121Z,12.43
2018-12-29T01:34:19.817Z,11.90
2018-12-29T01:36:48.496Z,12.33
2018-12-29T01:39:17.333Z,11.23
2018-12-29T01:41:46.011Z,12.40
2018-12-29T01:44:14.901Z,12.27
2018-12-29T01:46:43.642Z,12.10
2018-12-29T01:49:12.667Z,12.27
2018-12-29T01:51:41.336Z,11.87
2018-12-29T01:54:10.088Z,13.07
2018-12-29T01:56:38.768Z,12.57
2018-12-29T01:59:07.444Z,12.93
2018-12-29T02:01:36.436Z,12.67
2018-12-29T02:04:05.235Z,12.77
2018-12-29T02:06:33.906Z,13.47
2018-12-29T02:09:02.850Z,13.57
2018-12-29T02:11:31.531Z,13.90
2018-12-29T02:14:00.224Z,14.23
2018-12-29T02:16:29.109Z,12.47
2018-12-29T02:18:57.728Z,12.10
2018-12-29T02:21:26.414Z,12.97
2018-12-29T02:23:55.158Z,12.53
2018-12-29T02:26:23.837Z,12.90
2018-12-29T02:28:52.529Z,11.37
2018-12-29T02:31:21.363Z,11.77
2018-12-29T02:33:50.095Z,10.73
2018-12-29T02:36:18.783Z,13.07
2018-12-29T02:38:47.648Z,12.27
2018-12-29T02:41:16.327Z,12.50
2018-12-29T02:43:44.994Z,11.03
2018-12-29T02:46:13.722Z,12.67
2018-12-29T02:48:42.511Z,12.83
2018-12-29T02:51:11.193Z,11.50
2018-12-29T02:53:39.915Z,13.07
2018-12-29T02:56:08.599Z,11.50
2018-12-29T02:58:37.297Z,10.40
2018-12-29T03:01:06.114Z,10.50
2018-12-29T03:03:34.794Z,9.10
2018-12-29T03:06:03.511Z,9.80
2018-12-29T03:08:32.315Z,9.73
2018-12-29T03:11:00.997Z,9.83
2018-12-29T03:13:29.663Z,8.70
2018-12-29T03:15:58.722Z,8.67
2018-12-29T03:18:27.367Z,8.10
2018-12-29T03:20:56.050Z,8.90
2018-12-29T03:23:24.860Z,8.20
2018-12-29T03:25:53.544Z,8.57
2018-12-29T03:28:22.226Z,8.87
2018-12-29T03:30:51.009Z,8.10
2018-12-29T03:33:19.663Z,8.03
2018-12-29T03:35:48.344Z,8.03
2018-12-29T03:38:17.296Z,8.77
2018-12-29T03:40:45.967Z,8.07
2018-12-29T03:43:14.658Z,8.57
2018-12-29T03:45:49.047Z,8.90
2018-12-29T03:48:13.799Z,8.90
2018-12-29T03:50:42.486Z,8.00
2018-12-29T03:53:11.567Z,8.37
2018-12-29T03:55:40.246Z,7.73
2018-12-29T03:58:08.932Z,8.73
2018-12-29T04:00:37.817Z,8.27
2018-12-29T04:03:06.505Z,7.77
2018-12-29T04:05:35.206Z,8.50
2018-12-29T04:08:05.406Z,9.50
2018-12-29T04:10:34.097Z,9.40
2018-12-29T04:13:02.760Z,9.23
2018-12-29T04:15:31.566Z,10.30
2018-12-29T04:18:00.253Z,11.07
2018-12-29T04:20:28.958Z,10.97
2018-12-29T04:22:57.835Z,11.13
2018-12-29T04:25:26.511Z,12.90
2018-12-29T04:27:55.202Z,13.77
2018-12-29T04:30:23.990Z,14.30
2018-12-29T04:32:52.661Z,12.17
2018-12-29T04:35:21.344Z,11.53
2018-12-29T04:37:50.205Z,12.43
2018-12-29T04:40:18.885Z,12.17
2018-12-29T04:42:47.575Z,11.33
2018-12-29T04:45:16.426Z,10.20
2018-12-29T04:47:46.196Z,11.53
2018-12-29T04:50:14.882Z,11.70
2018-12-29T04:52:44.012Z,10.80
2018-12-29T04:55:12.680Z,11.83
2018-12-29T04:57:41.358Z,12.43
2018-12-29T05:00:10.194Z,11.83
2018-12-29T05:02:38.889Z,12.00
2018-12-29T05:05:07.631Z,11.70
2018-12-29T05:07:36.747Z,12.33
2018-12-29T05:10:07.373Z,11.90
2018-12-29T05:12:36.046Z,12.30
2018-12-29T05:15:05.405Z,12.53
2018-12-29T05:17:34.082Z,13.60
2018-12-29T05:20:02.764Z,13.30
2018-12-29T05:22:31.684Z,16.30
2018-12-29T05:25:00.357Z,13.53
2018-12-29T05:27:29.042Z,12.53
2018-12-29T05:29:58.083Z,14.97
2018-12-29T05:32:26.770Z,12.93
2018-12-29T05:34:55.454Z,12.00
2018-12-29T05:37:24.456Z,11.43
2018-12-29T05:39:53.158Z,11.40
2018-12-29T05:42:21.831Z,11.37
2018-12-29T05:44:50.657Z,11.30
2018-12-29T05:47:19.337Z,10.77
2018-12-29T05:49:48.028Z,11.97
2018-12-29T05:52:16.885Z,12.90
2018-12-29T05:54:45.564Z,14.10
2018-12-29T05:57:14.248Z,15.03
2018-12-29T05:59:43.123Z,16.13
2018-12-29T06:02:11.767Z,15.53
2018-12-29T06:04:40.447Z,12.67
2018-12-29T06:07:09.170Z,18.23
2018-12-29T06:09:37.843Z,20.27
2018-12-29T06:12:07.030Z,21.00
2018-12-29T06:14:35.800Z,17.27
2018-12-29T06:17:04.684Z,17.43
2018-12-29T06:19:33.374Z,19.73
2018-12-29T06:22:02.224Z,18.23
2018-12-29T06:24:30.917Z,18.97
2018-12-29T06:26:59.611Z,18.40
2018-12-29T06:29:28.531Z,15.63
2018-12-29T06:31:57.205Z,12.77
2018-12-29T06:34:25.893Z,14.53
2018-12-29T06:36:54.622Z,17.67
2018-12-29T06:39:23.308Z,27.40
2018-12-29T06:41:51.989Z,270.60
2018-12-29T06:44:20.933Z,67.60
2018-12-29T06:46:49.609Z,16.73
2018-12-29T06:49:18.291Z,10.20
2018-12-29T06:51:47.287Z,11.63
2018-12-29T06:54:15.957Z,9.93
2018-12-29T06:56:44.645Z,9.13
2018-12-29T06:59:13.568Z,9.67
2018-12-29T07:01:42.237Z,11.07
2018-12-29T07:04:10.918Z,9.87
2018-12-29T07:06:39.636Z,10.57
2018-12-29T07:09:08.342Z,11.00
2018-12-29T07:11:38.621Z,11.13
2018-12-29T07:14:08.036Z,11.77
2018-12-29T07:16:42.237Z,11.93
2018-12-29T07:19:07.094Z,13.90
2018-12-29T07:21:36.146Z,11.97
2018-12-29T07:24:04.828Z,11.90
2018-12-29T07:26:33.509Z,13.43
2018-12-29T07:29:02.266Z,13.17
2018-12-29T07:31:30.950Z,10.87
2018-12-29T07:34:00.045Z,8.73
2018-12-29T07:36:28.867Z,9.97
2018-12-29T07:38:57.548Z,8.90
2018-12-29T07:41:26.232Z,9.63
2018-12-29T07:43:55.202Z,10.83
2018-12-29T07:46:23.893Z,10.67
2018-12-29T07:48:52.579Z,11.13
2018-12-29T07:51:21.296Z,10.90
2018-12-29T07:53:49.986Z,10.63
2018-12-29T07:56:18.668Z,10.77
2018-12-29T07:58:47.618Z,13.90
2018-12-29T08:01:16.301Z,15.03
2018-12-29T08:03:45.006Z,12.80
2018-12-29T08:06:13.860Z,12.17
2018-12-29T08:08:42.556Z,12.23
2018-12-29T08:11:11.241Z,11.57
2018-12-29T08:13:39.989Z,12.17
2018-12-29T08:16:08.741Z,10.47
2018-12-29T08:18:37.434Z,10.47
2018-12-29T08:21:06.521Z,11.17
2018-12-29T08:23:35.585Z,14.57
2018-12-29T08:26:04.267Z,10.87
2018-12-29T08:28:33.014Z,14.33
2018-12-29T08:31:01.700Z,16.50
2018-12-29T08:33:30.390Z,23.90
2018-12-29T08:35:59.231Z,15.10
2018-12-29T08:38:27.949Z,12.27
2018-12-29T08:40:56.616Z,9.60
2018-12-29T08:43:25.697Z,11.93
2018-12-29T08:45:54.507Z,10.77
2018-12-29T08:48:23.166Z,9.60
2018-12-29T08:50:52.168Z,12.37
2018-12-29T08:53:20.858Z,10.90
2018-12-29T08:55:49.527Z,12.27
2018-12-29T08:58:18.245Z,12.30
2018-12-29T09:00:46.924Z,13.10
2018-12-29T09:03:15.609Z,11.70
2018-12-29T09:05:44.426Z,11.10
2018-12-29T09:08:13.114Z,8.47
2018-12-29T09:10:41.802Z,11.03
2018-12-29T09:13:10.895Z,11.77
2018-12-29T09:15:39.584Z,13.07
2018-12-29T09:18:09.381Z,11.90
2018-12-29T09:20:38.229Z,10.13
2018-12-29T09:23:06.939Z,11.20
2018-12-29T09:25:35.649Z,12.47
2018-12-29T09:28:04.515Z,10.27
2018-12-29T09:30:33.198Z,10.30
2018-12-29T09:33:01.870Z,10.63
2018-12-29T09:35:30.675Z,10.30
2018-12-29T09:37:59.375Z,10.00
2018-12-29T09:40:28.063Z,9.50
2018-12-29T09:42:56.823Z,11.10
2018-12-29T09:45:25.518Z,12.20
2018-12-29T09:47:54.205Z,9.20
2018-12-29T09:50:23.350Z,10.67
2018-12-29T09:52:51.978Z,10.57
2018-12-29T09:55:20.660Z,8.63
2018-12-29T09:57:49.662Z,9.77
2018-12-29T10:00:18.440Z,10.10
2018-12-29T10:02:47.135Z,10.83
2018-12-29T10:05:16.183Z,9.37
2018-12-29T10:07:44.882Z,14.17
2018-12-29T10:10:13.566Z,9.50
2018-12-29T10:12:42.381Z,9.53
2018-12-29T10:15:11.109Z,10.07
2018-12-29T10:17:39.738Z,12.30
2018-12-29T10:20:08.619Z,9.43
2018-12-29T10:22:37.311Z,11.10
2018-12-29T10:25:06.180Z,8.60
2018-12-29T10:27:35.127Z,10.47
2018-12-29T10:30:04.273Z,8.93
2018-12-29T10:32:32.965Z,7.87
2018-12-29T10:35:01.844Z,8.40
2018-12-29T10:37:30.532Z,8.53
2018-12-29T10:39:59.284Z,6.60
2018-12-29T10:42:28.123Z,7.53
2018-12-29T10:44:56.819Z,8.70
2018-12-29T10:47:25.491Z,9.20
2018-12-29T10:49:54.673Z,10.40
2018-12-29T10:52:23.444Z,8.80
2018-12-29T10:54:52.102Z,9.50
2018-12-29T10:57:20.933Z,9.40
2018-12-29T10:59:51.212Z,8.60
2018-12-29T11:02:19.891Z,6.73
2018-12-29T11:04:48.913Z,12.40
2018-12-29T11:07:17.693Z,7.80
2018-12-29T11:09:46.435Z,8.83
2018-12-29T11:12:15.396Z,9.43
2018-12-29T11:14:44.145Z,9.77
2018-12-29T11:17:13.099Z,8.90
2018-12-29T11:19:41.860Z,10.07
2018-12-29T11:22:12.631Z,10.30
2018-12-29T11:24:45.973Z,7.43
2018-12-29T11:27:14.652Z,8.77
2018-12-29T11:29:44.361Z,8.87
2018-12-29T11:32:13.139Z,9.57
2018-12-29T11:34:41.826Z,10.03
2018-12-29T11:43:01.800Z,8.43
2018-12-29T11:45:33.929Z,11.33
2018-12-29T11:48:02.584Z,9.23
2018-12-29T11:50:31.491Z,8.63
2018-12-29T11:53:00.177Z,17.47
2018-12-29T11:55:28.890Z,16.83
2018-12-29T11:57:57.887Z,9.33
2018-12-29T12:00:26.584Z,10.03
2018-12-29T12:02:55.274Z,11.37
2018-12-29T12:05:24.102Z,11.30
2018-12-29T12:07:52.795Z,12.97
2018-12-29T12:10:21.761Z,12.20
2018-12-29T12:12:50.720Z,11.13
2018-12-29T12:15:19.400Z,7.00
2018-12-29T12:17:48.089Z,5.93
2018-12-29T12:20:17.178Z,5.83
2018-12-29T12:22:46.043Z,6.17
2018-12-29T12:25:15.874Z,5.97
2018-12-29T12:27:44.895Z,5.00
2018-12-29T12:30:13.597Z,4.70
2018-12-29T12:32:42.319Z,4.10
2018-12-29T12:35:11.360Z,3.83
2018-12-29T12:37:40.046Z,5.13
2018-12-29T12:40:08.737Z,6.37
2018-12-29T12:42:37.566Z,5.03
2018-12-29T12:45:06.242Z,5.03
2018-12-29T12:47:34.995Z,6.53
2018-12-29T12:50:03.725Z,7.13
2018-12-29T12:52:35.209Z,4.87
2018-12-29T12:55:09.872Z,8.90
2018-12-29T12:57:50.278Z,10.43
2018-12-29T13:00:21.089Z,11.63
2018-12-29T13:02:49.760Z,8.37
2018-12-29T13:05:18.511Z,5.33
2018-12-29T13:07:47.385Z,7.37
2018-12-29T13:10:16.085Z,5.80
2018-12-29T13:12:48.354Z,6.13
2018-12-29T13:15:21.738Z,7.93
2018-12-29T13:17:50.592Z,6.57
2018-12-29T13:20:19.278Z,5.43
2018-12-29T13:22:48.188Z,6.43
2018-12-29T13:25:16.872Z,7.40
2018-12-29T13:27:45.780Z,6.43
2018-12-29T13:30:14.826Z,10.30
2018-12-29T13:32:46.266Z,8.63
2018-12-29T13:35:16.006Z,7.97
2018-12-29T13:37:44.777Z,10.60
2018-12-29T13:40:13.615Z,16.37
2018-12-29T13:42:42.430Z,11.30
2018-12-29T13:45:15.597Z,8.87
2018-12-29T13:47:50.484Z,12.03
2018-12-29T13:50:29.383Z,8.87
2018-12-29T13:52:58.253Z,8.10
2018-12-29T13:55:26.978Z,8.60
2018-12-29T13:57:55.780Z,14.17
2018-12-29T14:00:27.446Z,20.43
2018-12-29T14:02:56.156Z,11.13
2018-12-29T14:05:25.623Z,15.50
2018-12-29T14:07:57.392Z,16.47
2018-12-29T14:10:26.176Z,19.97
2018-12-29T14:13:01.168Z,18.77
2018-12-29T14:15:43.890Z,11.73
2018-12-29T14:18:15.374Z,12.43
2018-12-29T14:20:53.942Z,12.43
2018-12-29T14:23:25.162Z,11.73
2018-12-29T14:25:59.595Z,14.17
2018-12-29T14:28:44.734Z,14.87
2018-12-29T14:31:19.882Z,18.23
2018-12-29T14:33:56.559Z,21.97
2018-12-29T14:36:25.357Z,14.47
2018-12-29T14:38:54.390Z,15.90
2018-12-29T14:41:23.566Z,13.50
2018-12-29T14:43:52.322Z,13.77
2018-12-29T14:46:22.801Z,12.73
2018-12-29T14:49:00.469Z,12.90
2018-12-29T14:51:30.358Z,14.03
2018-12-29T14:54:03.609Z,12.87
2018-12-29T14:56:32.662Z,14.33
2018-12-29T14:59:01.382Z,14.53
2018-12-29T15:01:30.210Z,12.20
2018-12-29T15:03:59.543Z,21.30
2018-12-29T15:06:28.301Z,39.47
2018-12-29T15:09:00.351Z,46.80
2018-12-29T15:11:29.382Z,17.77
2018-12-29T15:13:58.139Z,48.33
2018-12-29T15:16:26.811Z,49.50
2018-12-29T15:18:56.769Z,46.80
2018-12-29T15:21:25.934Z,70.00
2018-12-29T15:23:58.213Z,61.03
2018-12-29T15:26:28.003Z,18.33
2018-12-29T15:28:56.709Z,17.93
2018-12-29T15:31:25.491Z,13.73
2018-12-29T15:33:54.315Z,16.77
2018-12-29T15:36:25.444Z,20.27
2018-12-29T15:38:54.159Z,24.87
2018-12-29T15:41:23.091Z,32.77
2018-12-29T15:43:52.075Z,28.50
2018-12-29T15:46:20.800Z,26.77
2018-12-29T15:48:51.114Z,18.27
2018-12-29T15:51:20.631Z,21.27
2018-12-29T15:53:49.345Z,20.93
2018-12-29T15:56:18.472Z,15.60
2018-12-29T15:58:47.273Z,16.83
2018-12-29T16:01:16.168Z,21.17
2018-12-29T16:03:45.408Z,19.33
2018-12-29T16:06:14.143Z,38.67
2018-12-29T16:08:43.810Z,29.40
2018-12-29T16:11:14.106Z,35.63
2018-12-29T16:13:43.114Z,28.83
2018-12-29T16:16:11.841Z,25.03
2018-12-29T16:18:40.812Z,25.30
2018-12-29T16:21:09.490Z,27.97
2018-12-29T16:23:38.190Z,40.33
2018-12-29T16:26:12.666Z,22.93
2018-12-29T16:28:37.814Z,32.10
2018-12-29T16:31:06.816Z,52.00
2018-12-29T16:33:36.266Z,35.40
2018-12-29T16:36:05.131Z,34.30
2018-12-29T16:38:33.827Z,37.93
2018-12-29T16:41:02.829Z,42.30
2018-12-29T16:43:31.588Z,59.40
2018-12-29T16:46:00.305Z,53.90
2018-12-29T16:48:29.234Z,31.07
2018-12-29T16:50:58.095Z,38.07
2018-12-29T16:53:29.409Z,37.33
2018-12-29T16:55:57.469Z,52.93
2018-12-29T16:58:26.175Z,52.37
2018-12-29T17:00:55.244Z,52.20
2018-12-29T17:03:24.301Z,38.53
2018-12-29T17:05:52.985Z,42.43
2018-12-29T17:08:21.681Z,54.37
2018-12-29T17:10:50.878Z,58.70
2018-12-29T17:13:19.601Z,61.10
2018-12-29T17:15:48.306Z,59.80
2018-12-29T17:18:17.091Z,82.70
2018-12-29T17:20:45.854Z,113.37
2018-12-29T17:23:14.566Z,82.90
2018-12-29T17:25:43.604Z,78.80
2018-12-29T17:28:12.290Z,54.87
2018-12-29T17:30:41.001Z,56.70
2018-12-29T17:33:09.865Z,52.90
2018-12-29T17:35:38.563Z,41.70
2018-12-29T17:38:07.268Z,47.20
2018-12-29T17:40:36.163Z,38.03
2018-12-29T17:43:04.829Z,44.13
2018-12-29T17:45:33.497Z,32.90
2018-12-29T17:48:02.582Z,43.90
2018-12-29T17:50:31.653Z,60.20
2018-12-29T17:53:00.353Z,29.60
2018-12-29T17:55:29.104Z,37.83
2018-12-29T17:57:57.809Z,38.07
2018-12-29T18:00:27.587Z,36.57
2018-12-29T18:02:56.640Z,45.50
2018-12-29T18:05:25.334Z,35.93
2018-12-29T18:07:54.028Z,40.93
2018-12-29T18:10:23.077Z,39.40
2018-12-29T18:12:51.781Z,51.00
2018-12-29T18:15:20.474Z,48.97
2018-12-29T18:17:49.384Z,51.83
2018-12-29T18:20:18.072Z,30.37
2018-12-29T18:22:46.761Z,27.83
2018-12-29T18:25:15.623Z,27.43
2018-12-29T18:27:44.587Z,32.13
2018-12-29T18:30:13.311Z,45.03
2018-12-29T18:32:42.255Z,48.30
2018-12-29T18:35:10.942Z,44.90
2018-12-29T18:37:39.644Z,38.80
2018-12-29T18:40:08.554Z,37.20
2018-12-29T18:42:37.285Z,85.67
2018-12-29T18:45:06.765Z,99.70
2018-12-29T18:47:35.552Z,116.23
2018-12-29T18:50:05.339Z,86.93
2018-12-29T18:52:34.081Z,46.37
2018-12-29T18:55:03.202Z,47.47
2018-12-29T18:57:31.886Z,37.43
2018-12-29T19:00:00.582Z,31.27
2018-12-29T19:02:29.513Z,30.17
2018-12-29T19:04:58.207Z,41.53
2018-12-29T19:07:27.099Z,35.00
2018-12-29T19:09:55.807Z,32.93
2018-12-29T19:12:24.521Z,20.60
2018-12-29T19:14:53.201Z,21.40
2018-12-29T19:17:22.233Z,16.47
2018-12-29T19:19:51.317Z,15.37
2018-12-29T19:22:19.989Z,16.20
2018-12-29T19:24:48.751Z,19.33
2018-12-29T19:27:17.460Z,22.87
2018-12-29T19:29:46.228Z,25.13
2018-12-29T19:32:15.541Z,21.70
2018-12-29T19:34:44.855Z,22.80
2018-12-29T19:37:13.946Z,16.80
2018-12-29T19:39:43.260Z,15.00
2018-12-29T19:42:11.939Z,13.27
2018-12-29T19:44:40.620Z,13.17
2018-12-29T19:47:09.750Z,14.50
2018-12-29T19:49:38.445Z,15.13
2018-12-29T19:52:07.497Z,19.00
2018-12-29T19:54:36.236Z,30.53
2018-12-29T19:57:05.503Z,21.07
2018-12-29T19:59:34.572Z,17.67
2018-12-29T20:02:03.773Z,18.27
2018-12-29T20:04:32.610Z,16.33
2018-12-29T20:07:01.475Z,15.87
2018-12-29T20:09:30.219Z,17.43
2018-12-29T20:11:59.192Z,18.87
2018-12-29T20:14:27.866Z,23.53
2018-12-29T20:16:56.593Z,16.37
2018-12-29T20:19:25.285Z,21.43
2018-12-29T20:21:53.994Z,16.57
2018-12-29T20:24:23.099Z,16.50
2018-12-29T20:26:51.799Z,14.40
2018-12-29T20:29:20.532Z,14.40
2018-12-29T20:31:49.645Z,14.47
2018-12-29T20:34:18.388Z,15.53
2018-12-29T20:36:47.540Z,15.87
2018-12-29T20:39:16.673Z,48.63
2018-12-29T20:41:45.375Z,106.73
2018-12-29T20:44:14.085Z,134.30
2018-12-29T20:46:43.299Z,63.23
2018-12-29T20:49:12.325Z,90.17
2018-12-29T20:51:41.080Z,82.70
2018-12-29T20:54:09.928Z,31.80
2018-12-29T20:56:38.612Z,19.87
2018-12-29T20:59:07.298Z,14.73
2018-12-29T21:01:36.158Z,15.80
2018-12-29T21:04:05.042Z,17.80
2018-12-29T21:06:33.750Z,24.80
2018-12-29T21:09:02.621Z,18.97
2018-12-29T21:11:31.335Z,54.13
2018-12-29T21:14:00.024Z,54.27
2018-12-29T21:16:28.861Z,29.47
2018-12-29T21:18:57.542Z,19.70
2018-12-29T21:21:26.241Z,16.73
2018-12-29T21:23:55.118Z,20.83
2018-12-29T21:26:23.795Z,28.13
2018-12-29T21:28:52.496Z,20.90
2018-12-29T21:31:21.886Z,21.33
2018-12-29T21:33:50.615Z,17.50
2018-12-29T21:36:19.297Z,19.33
2018-12-29T21:38:48.202Z,17.10
2018-12-29T21:41:16.902Z,16.70
2018-12-29T21:43:45.752Z,14.10
2018-12-29T21:46:14.562Z,13.40
2018-12-29T21:48:43.252Z,21.70
2018-12-29T21:51:11.940Z,24.07
2018-12-29T21:53:40.734Z,29.03
2018-12-29T21:56:09.382Z,30.43
2018-12-29T21:58:38.368Z,29.67
2018-12-29T22:01:07.333Z,31.47
2018-12-29T22:03:36.012Z,17.70
2018-12-29T22:06:04.702Z,17.37
2018-12-29T22:08:33.542Z,21.60
2018-12-29T22:11:02.486Z,27.97
2018-12-29T22:13:31.147Z,21.93
2018-12-29T22:15:59.963Z,20.23
2018-12-29T22:18:28.648Z,22.60
2018-12-29T22:20:57.337Z,18.87
2018-12-29T22:23:26.313Z,20.20
2018-12-29T22:25:55.193Z,19.87
2018-12-29T22:28:23.888Z,19.80
2018-12-29T22:30:52.732Z,18.87
2018-12-29T22:33:21.421Z,22.53
2018-12-29T22:35:50.112Z,34.07
2018-12-29T22:38:19.556Z,21.70
2018-12-29T22:40:48.280Z,26.57
2018-12-29T22:43:17.022Z,19.17
2018-12-29T22:45:45.821Z,17.10
2018-12-29T22:48:14.507Z,16.17
2018-12-29T22:50:43.206Z,14.87
2018-12-29T22:53:12.003Z,14.83
2018-12-29T22:55:40.686Z,20.20
2018-12-29T22:58:09.368Z,17.03
2018-12-29T23:00:39.809Z,17.60
2018-12-29T23:03:08.681Z,17.63
2018-12-29T23:05:37.365Z,17.47
2018-12-29T23:08:06.321Z,15.40
2018-12-29T23:10:35.001Z,17.83
2018-12-29T23:13:04.258Z,16.37
2018-12-29T23:15:33.096Z,17.37
2018-12-29T23:18:01.790Z,13.33
2018-12-29T23:20:30.883Z,14.53
2018-12-29T23:22:59.754Z,17.93
2018-12-29T23:25:28.466Z,17.67
2018-12-29T23:27:57.127Z,20.27
2018-12-29T23:30:26.223Z,19.77
2018-12-29T23:32:54.937Z,19.17
2018-12-29T23:35:23.619Z,19.33
2018-12-29T23:37:52.462Z,17.80
2018-12-29T23:40:21.141Z,16.37
2018-12-29T23:42:49.893Z,19.50
2018-12-29T23:45:18.628Z,16.60
2018-12-29T23:47:47.315Z,16.37
2018-12-29T23:50:16.173Z,16.40
2018-12-29T23:52:45.274Z,19.37
2018-12-29T23:55:14.341Z,17.10
2018-12-29T23:57:43.034Z,15.90
